sensor_id;sensor_type;location;lat;lon;timestamp;pressure;altitude;pressure_sealevel;temperature
67515;BMP280;60646;55.802;37.032;2024-02-21T00:02:22;100457.06;;;-2.98
67515;BMP280;60646;55.802;37.032;2024-02-21T00:04:48;100436.06;;;-3.13
67515;BMP280;60646;55.802;37.032;2024-02-21T00:07:14;100454.78;;;-3.04
67515;BMP280;60646;55.802;37.032;2024-02-21T00:09:39;100430.81;;;-3.20
67515;BMP280;60646;55.802;37.032;2024-02-21T00:12:05;100436.03;;;-3.20
67515;BMP280;60646;55.802;37.032;2024-02-21T00:14:31;100443.91;;;-3.13
67515;BMP280;60646;55.802;37.032;2024-02-21T00:16:57;100406.38;;;-3.38
67515;BMP280;60646;55.802;37.032;2024-02-21T00:19:23;100447.25;;;-3.16
67515;BMP280;60646;55.802;37.032;2024-02-21T00:21:49;100441.97;;;-3.23
67515;BMP280;60646;55.802;37.032;2024-02-21T00:24:15;100430.69;;;-3.30
67515;BMP280;60646;55.802;37.032;2024-02-21T00:26:41;100435.09;;;-3.38
67515;BMP280;60646;55.802;37.032;2024-02-21T00:29:07;100432.09;;;-3.40
67515;BMP280;60646;55.802;37.032;2024-02-21T00:31:33;100431.69;;;-3.45
67515;BMP280;60646;55.802;37.032;2024-02-21T00:33:59;100433.13;;;-3.48
67515;BMP280;60646;55.802;37.032;2024-02-21T00:36:25;100437.59;;;-3.49
67515;BMP280;60646;55.802;37.032;2024-02-21T00:38:51;100445.47;;;-3.45
67515;BMP280;60646;55.802;37.032;2024-02-21T00:41:17;100433.84;;;-3.51
67515;BMP280;60646;55.802;37.032;2024-02-21T00:43:43;100434.97;;;-3.52
67515;BMP280;60646;55.802;37.032;2024-02-21T00:46:09;100433.44;;;-3.53
67515;BMP280;60646;55.802;37.032;2024-02-21T00:48:34;100410.97;;;-3.68
67515;BMP280;60646;55.802;37.032;2024-02-21T00:51:01;100411.72;;;-3.64
67515;BMP280;60646;55.802;37.032;2024-02-21T00:53:26;100411.34;;;-3.63
67515;BMP280;60646;55.802;37.032;2024-02-21T00:55:52;100394.47;;;-3.72
67515;BMP280;60646;55.802;37.032;2024-02-21T00:58:19;100401.25;;;-3.68
67515;BMP280;60646;55.802;37.032;2024-02-21T01:00:45;100400.56;;;-3.61
67515;BMP280;60646;55.802;37.032;2024-02-21T01:03:11;100398.31;;;-3.63
67515;BMP280;60646;55.802;37.032;2024-02-21T01:05:37;100402.13;;;-3.53
67515;BMP280;60646;55.802;37.032;2024-02-21T01:08:03;100398.38;;;-3.56
67515;BMP280;60646;55.802;37.032;2024-02-21T01:10:28;100393.91;;;-3.55
67515;BMP280;60646;55.802;37.032;2024-02-21T01:12:55;100393.59;;;-3.50
67515;BMP280;60646;55.802;37.032;2024-02-21T01:15:21;100401.84;;;-3.44
67515;BMP280;60646;55.802;37.032;2024-02-21T01:17:47;100389.53;;;-3.44
67515;BMP280;60646;55.802;37.032;2024-02-21T01:20:12;100380.25;;;-3.41
67515;BMP280;60646;55.802;37.032;2024-02-21T01:22:38;100385.50;;;-3.38
67515;BMP280;60646;55.802;37.032;2024-02-21T01:25:04;100368.66;;;-3.44
67515;BMP280;60646;55.802;37.032;2024-02-21T01:27:31;100367.22;;;-3.38
67515;BMP280;60646;55.802;37.032;2024-02-21T01:29:57;100375.13;;;-3.27
67515;BMP280;60646;55.802;37.032;2024-02-21T01:32:22;100386.03;;;-3.18
67515;BMP280;60646;55.802;37.032;2024-02-21T01:34:50;100366.53;;;-3.28
67515;BMP280;60646;55.802;37.032;2024-02-21T01:37:16;100377.47;;;-3.19
67515;BMP280;60646;55.802;37.032;2024-02-21T01:39:42;100385.31;;;-3.12
67515;BMP280;60646;55.802;37.032;2024-02-21T01:42:08;100367.00;;;-3.19
67515;BMP280;60646;55.802;37.032;2024-02-21T01:44:35;100368.88;;;-3.16
67515;BMP280;60646;55.802;37.032;2024-02-21T01:47:02;100353.19;;;-3.19
67515;BMP280;60646;55.802;37.032;2024-02-21T01:49:28;100372.31;;;-3.05
67515;BMP280;60646;55.802;37.032;2024-02-21T01:51:54;100378.72;;;-2.95
67515;BMP280;60646;55.802;37.032;2024-02-21T01:54:20;100355.53;;;-3.04
67515;BMP280;60646;55.802;37.032;2024-02-21T01:56:46;100355.91;;;-3.01
67515;BMP280;60646;55.802;37.032;2024-02-21T01:59:14;100339.47;;;-3.06
67515;BMP280;60646;55.802;37.032;2024-02-21T02:01:40;100378.09;;;-2.78
67515;BMP280;60646;55.802;37.032;2024-02-21T02:04:07;100368.41;;;-2.74
67515;BMP280;60646;55.802;37.032;2024-02-21T02:06:33;100358.66;;;-2.80
67515;BMP280;60646;55.802;37.032;2024-02-21T02:08:59;100366.56;;;-2.66
67515;BMP280;60646;55.802;37.032;2024-02-21T02:11:25;100359.06;;;-2.71
67515;BMP280;60646;55.802;37.032;2024-02-21T02:13:51;100355.72;;;-2.72
67515;BMP280;60646;55.802;37.032;2024-02-21T02:16:17;100368.50;;;-2.56
67515;BMP280;60646;55.802;37.032;2024-02-21T02:18:43;100374.50;;;-2.52
67515;BMP280;60646;55.802;37.032;2024-02-21T02:21:23;100350.56;;;-2.61
67515;BMP280;60646;55.802;37.032;2024-02-21T02:23:52;100355.06;;;-2.54
67515;BMP280;60646;55.802;37.032;2024-02-21T02:26:18;100337.06;;;-2.63
67515;BMP280;60646;55.802;37.032;2024-02-21T02:28:44;100337.88;;;-2.59
67515;BMP280;60646;55.802;37.032;2024-02-21T02:31:10;100343.13;;;-2.45
67515;BMP280;60646;55.802;37.032;2024-02-21T02:33:36;100352.88;;;-2.42
67515;BMP280;60646;55.802;37.032;2024-02-21T02:36:02;100354.75;;;-2.39
67515;BMP280;60646;55.802;37.032;2024-02-21T02:38:28;100347.66;;;-2.35
67515;BMP280;60646;55.802;37.032;2024-02-21T02:40:54;100343.94;;;-2.34
67515;BMP280;60646;55.802;37.032;2024-02-21T02:43:20;100358.19;;;-2.21
67515;BMP280;60646;55.802;37.032;2024-02-21T02:45:45;100352.19;;;-2.25
67515;BMP280;60646;55.802;37.032;2024-02-21T02:48:11;100336.44;;;-2.32
67515;BMP280;60646;55.802;37.032;2024-02-21T02:50:37;100338.38;;;-2.29
67515;BMP280;60646;55.802;37.032;2024-02-21T02:53:03;100350.34;;;-2.21
67515;BMP280;60646;55.802;37.032;2024-02-21T02:55:29;100347.72;;;-2.21
67515;BMP280;60646;55.802;37.032;2024-02-21T02:57:54;100344.72;;;-2.23
67515;BMP280;60646;55.802;37.032;2024-02-21T03:00:21;100364.22;;;-2.02
67515;BMP280;60646;55.802;37.032;2024-02-21T03:02:49;100358.22;;;-1.99
67515;BMP280;60646;55.802;37.032;2024-02-21T03:05:20;100368.72;;;-1.96
67515;BMP280;60646;55.802;37.032;2024-02-21T03:07:46;100346.25;;;-2.04
67515;BMP280;60646;55.802;37.032;2024-02-21T03:10:13;100318.19;;;-2.17
67515;BMP280;60646;55.802;37.032;2024-02-21T03:12:39;100340.66;;;-2.02
67515;BMP280;60646;55.802;37.032;2024-02-21T03:15:05;100335.81;;;-2.00
67515;BMP280;60646;55.802;37.032;2024-02-21T03:17:41;100324.19;;;-1.99
67515;BMP280;60646;55.802;37.032;2024-02-21T03:20:12;100351.56;;;-1.79
67515;BMP280;60646;55.802;37.032;2024-02-21T03:22:40;100349.31;;;-1.73
67515;BMP280;60646;55.802;37.032;2024-02-21T03:25:07;100353.81;;;-1.70
67515;BMP280;60646;55.802;37.032;2024-02-21T03:27:39;100320.84;;;-1.93
67515;BMP280;60646;55.802;37.032;2024-02-21T03:30:05;100332.88;;;-1.78
67515;BMP280;60646;55.802;37.032;2024-02-21T03:32:33;100354.94;;;-1.64
67515;BMP280;60646;55.802;37.032;2024-02-21T03:35:00;100339.59;;;-1.66
67515;BMP280;60646;55.802;37.032;2024-02-21T03:37:25;100336.97;;;-1.66
67515;BMP280;60646;55.802;37.032;2024-02-21T03:39:51;100346.31;;;-1.51
67515;BMP280;60646;55.802;37.032;2024-02-21T03:42:17;100325.38;;;-1.65
67515;BMP280;60646;55.802;37.032;2024-02-21T03:44:43;100320.13;;;-1.61
67515;BMP280;60646;55.802;37.032;2024-02-21T03:47:09;100322.38;;;-1.60
67515;BMP280;60646;55.802;37.032;2024-02-21T03:49:37;100326.84;;;-1.53
67515;BMP280;60646;55.802;37.032;2024-02-21T03:52:04;100356.41;;;-1.35
67515;BMP280;60646;55.802;37.032;2024-02-21T03:54:30;100330.59;;;-1.44
67515;BMP280;60646;55.802;37.032;2024-02-21T03:56:56;100337.31;;;-1.39
67515;BMP280;60646;55.802;37.032;2024-02-21T03:59:22;100329.84;;;-1.41
67515;BMP280;60646;55.802;37.032;2024-02-21T04:01:52;100351.94;;;-1.24
67515;BMP280;60646;55.802;37.032;2024-02-21T04:04:18;100323.09;;;-1.38
67515;BMP280;60646;55.802;37.032;2024-02-21T04:06:48;100354.94;;;-1.18
67515;BMP280;60646;55.802;37.032;2024-02-21T04:09:14;100335.84;;;-1.26
67515;BMP280;60646;55.802;37.032;2024-02-21T04:11:40;100351.16;;;-1.17
67515;BMP280;60646;55.802;37.032;2024-02-21T04:14:06;100323.84;;;-1.34
67515;BMP280;60646;55.802;37.032;2024-02-21T04:16:32;100321.63;;;-1.28
67515;BMP280;60646;55.802;37.032;2024-02-21T04:18:58;100327.22;;;-1.26
67515;BMP280;60646;55.802;37.032;2024-02-21T04:21:24;100361.25;;;-1.05
67515;BMP280;60646;55.802;37.032;2024-02-21T04:23:50;100342.19;;;-1.20
67515;BMP280;60646;55.802;37.032;2024-02-21T04:26:16;100349.28;;;-1.13
67515;BMP280;60646;55.802;37.032;2024-02-21T04:28:45;100335.81;;;-1.15
67515;BMP280;60646;55.802;37.032;2024-02-21T04:31:10;100344.06;;;-1.10
67515;BMP280;60646;55.802;37.032;2024-02-21T04:33:36;100339.91;;;-1.07
67515;BMP280;60646;55.802;37.032;2024-02-21T04:36:02;100324.56;;;-1.12
67515;BMP280;60646;55.802;37.032;2024-02-21T04:38:28;100327.56;;;-1.10
67515;BMP280;60646;55.802;37.032;2024-02-21T04:40:55;100330.94;;;-1.06
67515;BMP280;60646;55.802;37.032;2024-02-21T04:43:27;100329.78;;;-1.02
67515;BMP280;60646;55.802;37.032;2024-02-21T04:45:52;100358.59;;;-0.88
67515;BMP280;60646;55.802;37.032;2024-02-21T04:48:19;100343.28;;;-0.96
67515;BMP280;60646;55.802;37.032;2024-02-21T04:50:46;100337.66;;;-0.98
67515;BMP280;60646;55.802;37.032;2024-02-21T04:53:12;100337.28;;;-1.00
67515;BMP280;60646;55.802;37.032;2024-02-21T04:55:38;100339.50;;;-0.92
67515;BMP280;60646;55.802;37.032;2024-02-21T04:58:07;100332.78;;;-0.96
67515;BMP280;60646;55.802;37.032;2024-02-21T05:00:38;100330.53;;;-0.98
67515;BMP280;60646;55.802;37.032;2024-02-21T05:03:04;100328.28;;;-0.99
67515;BMP280;60646;55.802;37.032;2024-02-21T05:05:30;100325.28;;;-0.98
67515;BMP280;60646;55.802;37.032;2024-02-21T05:08:01;100352.22;;;-0.83
67515;BMP280;60646;55.802;37.032;2024-02-21T05:10:52;100330.91;;;-0.99
67515;BMP280;60646;55.802;37.032;2024-02-21T05:13:19;100340.59;;;-0.85
67515;BMP280;60646;55.802;37.032;2024-02-21T05:15:44;100331.25;;;-0.90
67515;BMP280;60646;55.802;37.032;2024-02-21T05:18:16;100361.53;;;-0.64
67515;BMP280;60646;55.802;37.032;2024-02-21T05:20:42;100366.38;;;-0.59
67515;BMP280;60646;55.802;37.032;2024-02-21T05:23:08;100351.03;;;-0.68
67515;BMP280;60646;55.802;37.032;2024-02-21T05:25:34;100361.13;;;-0.63
67515;BMP280;60646;55.802;37.032;2024-02-21T05:28:00;100325.22;;;-0.80
67515;BMP280;60646;55.802;37.032;2024-02-21T05:30:29;100349.88;;;-0.56
67515;BMP280;60646;55.802;37.032;2024-02-21T05:32:55;100334.91;;;-0.66
67515;BMP280;60646;55.802;37.032;2024-02-21T05:35:34;100344.25;;;-0.58
67515;BMP280;60646;55.802;37.032;2024-02-21T05:38:03;100324.44;;;-0.70
67515;BMP280;60646;55.802;37.032;2024-02-21T05:40:32;100333.41;;;-0.60
67515;BMP280;60646;55.802;37.032;2024-02-21T05:42:58;100343.84;;;-0.53
67515;BMP280;60646;55.802;37.032;2024-02-21T05:45:23;100326.28;;;-0.60
67515;BMP280;60646;55.802;37.032;2024-02-21T05:47:49;100338.19;;;-0.45
67515;BMP280;60646;55.802;37.032;2024-02-21T05:50:15;100327.72;;;-0.52
67515;BMP280;60646;55.802;37.032;2024-02-21T05:52:43;100350.50;;;-0.34
67515;BMP280;60646;55.802;37.032;2024-02-21T05:55:08;100346.38;;;-0.35
67515;BMP280;60646;55.802;37.032;2024-02-21T05:57:34;100341.50;;;-0.30
67515;BMP280;60646;55.802;37.032;2024-02-21T06:00:03;100346.75;;;-0.23
67515;BMP280;60646;55.802;37.032;2024-02-21T06:02:38;100346.75;;;-0.23
67515;BMP280;60646;55.802;37.032;2024-02-21T06:05:04;100361.66;;;-0.09
67515;BMP280;60646;55.802;37.032;2024-02-21T06:07:33;100354.19;;;-0.14
67515;BMP280;60646;55.802;37.032;2024-02-21T06:10:02;100336.59;;;-0.21
67515;BMP280;60646;55.802;37.032;2024-02-21T06:12:30;100346.66;;;-0.12
67515;BMP280;60646;55.802;37.032;2024-02-21T06:14:56;100343.66;;;-0.11
67515;BMP280;60646;55.802;37.032;2024-02-21T06:17:21;100348.88;;;-0.07
67515;BMP280;60646;55.802;37.032;2024-02-21T06:19:47;100356.34;;;-0.02
67515;BMP280;60646;55.802;37.032;2024-02-21T06:22:13;100341.38;;;-0.05
67515;BMP280;60646;55.802;37.032;2024-02-21T06:24:39;100345.78;;;0.05
67515;BMP280;60646;55.802;37.032;2024-02-21T06:27:05;100362.97;;;0.20
67515;BMP280;60646;55.802;37.032;2024-02-21T06:29:34;100347.25;;;0.13
67515;BMP280;60646;55.802;37.032;2024-02-21T06:32:01;100361.38;;;0.30
67515;BMP280;60646;55.802;37.032;2024-02-21T06:34:27;100346.41;;;0.23
67515;BMP280;60646;55.802;37.032;2024-02-21T06:36:53;100337.47;;;0.17
67515;BMP280;60646;55.802;37.032;2024-02-21T06:39:19;100360.13;;;0.41
67515;BMP280;60646;55.802;37.032;2024-02-21T06:41:45;100339.63;;;0.29
67515;BMP280;60646;55.802;37.032;2024-02-21T06:44:11;100332.78;;;0.35
67515;BMP280;60646;55.802;37.032;2024-02-21T06:46:37;100359.69;;;0.54
67515;BMP280;60646;55.802;37.032;2024-02-21T06:49:03;100349.13;;;0.57
67515;BMP280;60646;55.802;37.032;2024-02-21T06:51:32;100317.72;;;0.43
67515;BMP280;60646;55.802;37.032;2024-02-21T06:53:58;100346.03;;;0.66
67515;BMP280;60646;55.802;37.032;2024-02-21T06:56:24;100338.94;;;0.59
67515;BMP280;60646;55.802;37.032;2024-02-21T06:58:56;100353.84;;;0.73
67515;BMP280;60646;55.802;37.032;2024-02-21T07:01:23;100325.44;;;0.61
67515;BMP280;60646;55.802;37.032;2024-02-21T07:03:49;100330.19;;;0.73
67515;BMP280;60646;55.802;37.032;2024-02-21T07:06:15;100333.19;;;0.75
67515;BMP280;60646;55.802;37.032;2024-02-21T07:08:41;100318.97;;;0.69
67515;BMP280;60646;55.802;37.032;2024-02-21T07:11:07;100324.88;;;0.80
67515;BMP280;60646;55.802;37.032;2024-02-21T07:13:33;100306.19;;;0.71
67515;BMP280;60646;55.802;37.032;2024-02-21T07:15:59;100321.44;;;0.83
67515;BMP280;60646;55.802;37.032;2024-02-21T07:18:25;100329.63;;;0.92
67515;BMP280;60646;55.802;37.032;2024-02-21T07:20:51;100323.97;;;0.94
67515;BMP280;60646;55.802;37.032;2024-02-21T07:23:18;100326.56;;;0.97
67515;BMP280;60646;55.802;37.032;2024-02-21T07:25:44;100321.72;;;0.92
67515;BMP280;60646;55.802;37.032;2024-02-21T07:28:10;100315.78;;;0.88
67515;BMP280;60646;55.802;37.032;2024-02-21T07:30:36;100320.22;;;0.91
67515;BMP280;60646;55.802;37.032;2024-02-21T07:33:02;100321.34;;;0.94
67515;BMP280;60646;55.802;37.032;2024-02-21T07:35:28;100332.19;;;0.99
67515;BMP280;60646;55.802;37.032;2024-02-21T07:37:53;100302.28;;;0.86
67515;BMP280;60646;55.802;37.032;2024-02-21T07:40:19;100307.47;;;0.93
67515;BMP280;60646;55.802;37.032;2024-02-21T07:42:45;100324.63;;;1.01
67515;BMP280;60646;55.802;37.032;2024-02-21T07:45:11;100316.41;;;0.99
67515;BMP280;60646;55.802;37.032;2024-02-21T07:47:37;100309.66;;;0.98
67515;BMP280;60646;55.802;37.032;2024-02-21T07:50:04;100329.75;;;1.15
67515;BMP280;60646;55.802;37.032;2024-02-21T07:52:30;100309.53;;;1.09
67515;BMP280;60646;55.802;37.032;2024-02-21T07:54:56;100301.72;;;1.02
67515;BMP280;60646;55.802;37.032;2024-02-21T07:57:22;100308.75;;;1.12
67515;BMP280;60646;55.802;37.032;2024-02-21T07:59:48;100305.72;;;1.13
67515;BMP280;60646;55.802;37.032;2024-02-21T08:02:14;100307.19;;;1.18
67515;BMP280;60646;55.802;37.032;2024-02-21T08:04:41;100287.34;;;1.10
67515;BMP280;60646;55.802;37.032;2024-02-21T08:07:07;100291.34;;;1.21
67515;BMP280;60646;55.802;37.032;2024-02-21T08:09:33;100313.00;;;1.32
67515;BMP280;60646;55.802;37.032;2024-02-21T08:12:00;100314.47;;;1.33
67515;BMP280;60646;55.802;37.032;2024-02-21T08:14:26;100322.63;;;1.43
67515;BMP280;60646;55.802;37.032;2024-02-21T08:16:52;100296.75;;;1.37
67515;BMP280;60646;55.802;37.032;2024-02-21T08:19:21;100300.44;;;1.44
67515;BMP280;60646;55.802;37.032;2024-02-21T08:21:50;100308.16;;;1.58
67515;BMP280;60646;55.802;37.032;2024-02-21T08:24:16;100274.38;;;1.53
67515;BMP280;60646;55.802;37.032;2024-02-21T08:26:43;100313.09;;;1.79
67515;BMP280;60646;55.802;37.032;2024-02-21T08:29:11;100297.19;;;1.86
67515;BMP280;60646;55.802;37.032;2024-02-21T08:31:37;100289.56;;;1.92
67515;BMP280;60646;55.802;37.032;2024-02-21T08:34:03;100280.19;;;1.91
67515;BMP280;60646;55.802;37.032;2024-02-21T08:36:30;100315.16;;;2.18
67515;BMP280;60646;55.802;37.032;2024-02-21T08:38:56;100312.00;;;2.26
67515;BMP280;60646;55.802;37.032;2024-02-21T08:41:26;100305.41;;;2.35
67515;BMP280;60646;55.802;37.032;2024-02-21T08:43:52;100281.50;;;2.25
67515;BMP280;60646;55.802;37.032;2024-02-21T08:46:20;100313.84;;;2.49
67515;BMP280;60646;55.802;37.032;2024-02-21T08:48:47;100292.84;;;2.42
67515;BMP280;60646;55.802;37.032;2024-02-21T08:51:13;100277.09;;;2.39
67515;BMP280;60646;55.802;37.032;2024-02-21T08:53:39;100281.00;;;2.54
67515;BMP280;60646;55.802;37.032;2024-02-21T08:56:06;100291.59;;;2.70
67515;BMP280;60646;55.802;37.032;2024-02-21T08:58:33;100273.94;;;2.67
67515;BMP280;60646;55.802;37.032;2024-02-21T09:00:59;100265.56;;;2.72
67515;BMP280;60646;55.802;37.032;2024-02-21T09:03:25;100269.19;;;2.78
67515;BMP280;60646;55.802;37.032;2024-02-21T09:05:50;100294.34;;;3.02
67515;BMP280;60646;55.802;37.032;2024-02-21T09:08:16;100276.34;;;2.97
67515;BMP280;60646;55.802;37.032;2024-02-21T09:10:42;100280.66;;;3.07
67515;BMP280;60646;55.802;37.032;2024-02-21T09:13:08;100284.16;;;3.20
67515;BMP280;60646;55.802;37.032;2024-02-21T09:15:34;100280.69;;;3.23
67515;BMP280;60646;55.802;37.032;2024-02-21T09:18:00;100264.53;;;3.21
67515;BMP280;60646;55.802;37.032;2024-02-21T09:20:26;100271.44;;;3.32
67515;BMP280;60646;55.802;37.032;2024-02-21T09:22:51;100274.03;;;3.35
67515;BMP280;60646;55.802;37.032;2024-02-21T09:25:18;100272.81;;;3.40
67515;BMP280;60646;55.802;37.032;2024-02-21T09:27:45;100281.88;;;3.55
67515;BMP280;60646;55.802;37.032;2024-02-21T09:30:29;100283.34;;;3.56
67515;BMP280;60646;55.802;37.032;2024-02-21T09:32:55;100275.03;;;3.41
67515;BMP280;60646;55.802;37.032;2024-02-21T09:35:24;100277.59;;;3.45
67515;BMP280;60646;55.802;37.032;2024-02-21T09:37:52;100271.16;;;3.46
67515;BMP280;60646;55.802;37.032;2024-02-21T09:40:19;100268.50;;;3.46
67515;BMP280;60646;55.802;37.032;2024-02-21T09:42:46;100283.03;;;3.54
67515;BMP280;60646;55.802;37.032;2024-02-21T09:45:22;100283.03;;;3.54
67515;BMP280;60646;55.802;37.032;2024-02-21T09:50:40;100272.31;;;3.45
67515;BMP280;60646;55.802;37.032;2024-02-21T09:53:12;100266.69;;;3.43
67515;BMP280;60646;55.802;37.032;2024-02-21T09:55:39;100248.88;;;3.31
67515;BMP280;60646;55.802;37.032;2024-02-21T09:58:10;100261.06;;;3.41
67515;BMP280;60646;55.802;37.032;2024-02-21T10:00:36;100263.72;;;3.41
67515;BMP280;60646;55.802;37.032;2024-02-21T10:03:02;100252.84;;;3.39
67515;BMP280;60646;55.802;37.032;2024-02-21T10:05:36;100256.63;;;3.38
67515;BMP280;60646;55.802;37.032;2024-02-21T10:08:03;100272.88;;;3.52
67515;BMP280;60646;55.802;37.032;2024-02-21T10:10:39;100261.81;;;3.41
67515;BMP280;60646;55.802;37.032;2024-02-21T10:13:09;100256.13;;;3.43
67515;BMP280;60646;55.802;37.032;2024-02-21T10:15:35;100251.19;;;3.45
67515;BMP280;60646;55.802;37.032;2024-02-21T10:18:01;100252.16;;;3.51
67515;BMP280;60646;55.802;37.032;2024-02-21T10:20:29;100267.44;;;3.59
67515;BMP280;60646;55.802;37.032;2024-02-21T10:23:02;100257.34;;;3.54
67515;BMP280;60646;55.802;37.032;2024-02-21T10:25:35;100265.22;;;3.58
67515;BMP280;60646;55.802;37.032;2024-02-21T10:28:07;100244.75;;;3.46
67515;BMP280;60646;55.802;37.032;2024-02-21T10:30:33;100241.03;;;3.43
67515;BMP280;60646;55.802;37.032;2024-02-21T10:32:59;100245.22;;;3.41
67515;BMP280;60646;55.802;37.032;2024-02-21T10:35:32;100263.06;;;3.53
67515;BMP280;60646;55.802;37.032;2024-02-21T10:37:59;100236.31;;;3.35
67515;BMP280;60646;55.802;37.032;2024-02-21T10:40:26;100259.44;;;3.47
67515;BMP280;60646;55.802;37.032;2024-02-21T10:42:57;100258.69;;;3.46
67515;BMP280;60646;55.802;37.032;2024-02-21T10:45:30;100245.41;;;3.34
67515;BMP280;60646;55.802;37.032;2024-02-21T10:50:56;100227.41;;;3.29
67515;BMP280;60646;55.802;37.032;2024-02-21T10:53:53;100264.81;;;3.43
67515;BMP280;60646;55.802;37.032;2024-02-21T10:56:29;100261.06;;;3.41
67515;BMP280;60646;55.802;37.032;2024-02-21T10:58:56;100255.72;;;3.44
67515;BMP280;60646;55.802;37.032;2024-02-21T11:01:23;100257.28;;;3.42
67515;BMP280;60646;55.802;37.032;2024-02-21T11:03:52;100240.13;;;3.34
67515;BMP280;60646;55.802;37.032;2024-02-21T11:06:20;100237.47;;;3.34
67515;BMP280;60646;55.802;37.032;2024-02-21T11:08:47;100235.59;;;3.34
67515;BMP280;60646;55.802;37.032;2024-02-21T11:11:15;100220.31;;;3.25
67515;BMP280;60646;55.802;37.032;2024-02-21T11:13:46;100224.44;;;3.27
67515;BMP280;60646;55.802;37.032;2024-02-21T11:16:23;100229.22;;;3.32
67515;BMP280;60646;55.802;37.032;2024-02-21T11:18:49;100230.31;;;3.34
67515;BMP280;60646;55.802;37.032;2024-02-21T11:21:15;100228.06;;;3.33
67515;BMP280;60646;55.802;37.032;2024-02-21T11:23:41;100221.63;;;3.34
67515;BMP280;60646;55.802;37.032;2024-02-21T11:26:09;100225.16;;;3.27
67515;BMP280;60646;55.802;37.032;2024-02-21T11:28:35;100239.22;;;3.40
67515;BMP280;60646;55.802;37.032;2024-02-21T11:31:12;100225.91;;;3.28
67515;BMP280;60646;55.802;37.032;2024-02-21T11:33:41;100233.94;;;3.40
67515;BMP280;60646;55.802;37.032;2024-02-21T11:36:08;100220.63;;;3.28
67515;BMP280;60646;55.802;37.032;2024-02-21T11:38:35;100216.53;;;3.27
67515;BMP280;60646;55.802;37.032;2024-02-21T11:41:00;100234.66;;;3.41
67515;BMP280;60646;55.802;37.032;2024-02-21T11:43:45;100215.28;;;3.31
67515;BMP280;60646;55.802;37.032;2024-02-21T11:46:11;100219.09;;;3.30
67515;BMP280;60646;55.802;37.032;2024-02-21T11:48:37;100217.59;;;3.29
67515;BMP280;60646;55.802;37.032;2024-02-21T11:51:03;100231.84;;;3.32
67515;BMP280;60646;55.802;37.032;2024-02-21T11:53:31;100226.25;;;3.30
67515;BMP280;60646;55.802;37.032;2024-02-21T11:56:15;100215.84;;;3.22
67515;BMP280;60646;55.802;37.032;2024-02-21T11:58:41;100229.22;;;3.32
67515;BMP280;60646;55.802;37.032;2024-02-21T12:01:08;100209.16;;;3.18
67515;BMP280;60646;55.802;37.032;2024-02-21T12:03:35;100198.38;;;3.12
67515;BMP280;60646;55.802;37.032;2024-02-21T12:06:02;100229.28;;;3.28
67515;BMP280;60646;55.802;37.032;2024-02-21T12:08:41;100188.72;;;3.06
67515;BMP280;60646;55.802;37.032;2024-02-21T12:11:24;100214.69;;;3.23
67515;BMP280;60646;55.802;37.032;2024-02-21T12:14:08;100221.84;;;3.23
67515;BMP280;60646;55.802;37.032;2024-02-21T12:16:35;100210.00;;;3.15
67515;BMP280;60646;55.802;37.032;2024-02-21T12:19:03;100215.44;;;3.24
67515;BMP280;60646;55.802;37.032;2024-02-21T12:21:33;100199.13;;;3.13
67515;BMP280;60646;55.802;37.032;2024-02-21T12:26:41;100189.38;;;3.10
67515;BMP280;60646;55.802;37.032;2024-02-21T12:29:07;100199.03;;;3.16
67515;BMP280;60646;55.802;37.032;2024-02-21T12:31:39;100197.34;;;3.22
67515;BMP280;60646;55.802;37.032;2024-02-21T12:34:06;100190.03;;;3.14
67515;BMP280;60646;55.802;37.032;2024-02-21T12:36:32;100195.97;;;3.18
67515;BMP280;60646;55.802;37.032;2024-02-21T12:38:59;100180.53;;;3.00
67515;BMP280;60646;55.802;37.032;2024-02-21T12:41:37;100184.94;;;3.07
67515;BMP280;60646;55.802;37.032;2024-02-21T12:44:07;100195.06;;;3.08
67515;BMP280;60646;55.802;37.032;2024-02-21T12:46:34;100183.84;;;3.04
67515;BMP280;60646;55.802;37.032;2024-02-21T12:49:03;100194.66;;;3.10
67515;BMP280;60646;55.802;37.032;2024-02-21T12:51:33;100197.56;;;3.15
67515;BMP280;60646;55.802;37.032;2024-02-21T12:53:59;100177.56;;;2.98
67515;BMP280;60646;55.802;37.032;2024-02-21T12:56:26;100201.81;;;3.09
67515;BMP280;60646;55.802;37.032;2024-02-21T12:58:53;100200.69;;;3.10
67515;BMP280;60646;55.802;37.032;2024-02-21T13:01:19;100189.47;;;3.06
67515;BMP280;60646;55.802;37.032;2024-02-21T13:03:45;100172.13;;;2.89
67515;BMP280;60646;55.802;37.032;2024-02-21T13:06:12;100164.34;;;2.82
67515;BMP280;60646;55.802;37.032;2024-02-21T13:08:38;100177.81;;;2.88
67515;BMP280;60646;55.802;37.032;2024-02-21T13:11:05;100203.97;;;2.98
67515;BMP280;60646;55.802;37.032;2024-02-21T13:13:31;100202.47;;;2.97
67515;BMP280;60646;55.802;37.032;2024-02-21T13:15:58;100206.25;;;2.96
67515;BMP280;60646;55.802;37.032;2024-02-21T13:18:23;100211.19;;;2.94
67515;BMP280;60646;55.802;37.032;2024-02-21T13:20:49;100210.88;;;2.92
67515;BMP280;60646;55.802;37.032;2024-02-21T13:23:15;100203.38;;;2.91
67515;BMP280;60646;55.802;37.032;2024-02-21T13:25:41;100211.72;;;2.89
67515;BMP280;60646;55.802;37.032;2024-02-21T13:28:07;100207.19;;;2.90
67515;BMP280;60646;55.802;37.032;2024-02-21T13:30:35;100199.75;;;2.85
67515;BMP280;60646;55.802;37.032;2024-02-21T13:33:01;100208.31;;;2.89
67515;BMP280;60646;55.802;37.032;2024-02-21T13:35:29;100206.44;;;2.89
67515;BMP280;60646;55.802;37.032;2024-02-21T13:37:55;100197.50;;;2.83
67515;BMP280;60646;55.802;37.032;2024-02-21T13:40:20;100197.84;;;2.85
67515;BMP280;60646;55.802;37.032;2024-02-21T13:42:46;100204.28;;;2.84
67515;BMP280;60646;55.802;37.032;2024-02-21T13:45:12;100193.06;;;2.80
67515;BMP280;60646;55.802;37.032;2024-02-21T13:47:38;100193.13;;;2.76
67515;BMP280;60646;55.802;37.032;2024-02-21T13:50:05;100171.59;;;2.62
67515;BMP280;60646;55.802;37.032;2024-02-21T13:52:35;100206.72;;;2.75
67515;BMP280;60646;55.802;37.032;2024-02-21T13:55:01;100176.53;;;2.60
67515;BMP280;60646;55.802;37.032;2024-02-21T13:57:29;100171.00;;;2.54
67515;BMP280;60646;55.802;37.032;2024-02-21T13:59:54;100202.66;;;2.70
67515;BMP280;60646;55.802;37.032;2024-02-21T14:02:20;100199.34;;;2.66